createdAt,value
2023-03-17T00:02:06.186Z,101287.31
2023-03-17T00:04:35.746Z,101292.34
2023-03-17T00:07:05.415Z,101292.34
2023-03-17T00:09:35.861Z,101299.81
2023-03-17T00:12:08.503Z,101302.56
2023-03-17T00:14:38.418Z,101308.09
2023-03-17T00:17:07.986Z,101303.38
2023-03-17T00:19:37.925Z,101310.25
2023-03-17T00:22:13.366Z,101301.97
2023-03-17T00:24:43.250Z,101314.63
2023-03-17T00:27:16.255Z,101317.41
2023-03-17T00:29:46.033Z,101317.09
2023-03-17T00:32:20.189Z,101315.44
2023-03-17T00:34:54.312Z,101325.69
2023-03-17T00:37:23.977Z,101319.53
2023-03-17T00:39:53.677Z,101325.88
2023-03-17T00:42:23.938Z,101322.28
2023-03-17T00:44:53.476Z,101328.97
2023-03-17T00:47:22.977Z,101334.16
2023-03-17T00:49:53.051Z,101333.31
2023-03-17T00:52:23.689Z,101335.81
2023-03-17T00:54:53.561Z,101345.75
2023-03-17T00:57:24.863Z,101341.88
2023-03-17T00:59:55.382Z,101335.50
2023-03-17T01:02:26.916Z,101336.34
2023-03-17T01:05:05.823Z,101343.00
2023-03-17T01:10:24.091Z,101356.78
2023-03-17T01:12:54.520Z,101362.31
2023-03-17T01:15:24.683Z,101363.94
2023-03-17T01:18:01.757Z,101359.25
2023-03-17T01:20:37.210Z,101369.47
2023-03-17T01:23:09.002Z,101368.03
2023-03-17T01:25:41.212Z,101382.16
2023-03-17T01:28:17.429Z,101372.75
2023-03-17T01:30:49.233Z,101374.38
2023-03-17T01:33:27.484Z,101377.16
2023-03-17T01:36:03.135Z,101378.28
2023-03-17T01:41:18.142Z,101383.78
2023-03-17T01:43:48.139Z,101377.97
2023-03-17T01:46:27.383Z,101382.34
2023-03-17T01:49:21.584Z,101393.09
2023-03-17T01:52:09.682Z,101389.50
2023-03-17T01:55:05.152Z,101394.72
2023-03-17T01:57:55.876Z,101394.44
2023-03-17T02:00:28.889Z,101398.00
2023-03-17T02:02:59.922Z,101404.97
2023-03-17T02:05:33.184Z,101401.88
2023-03-17T02:08:03.474Z,101410.16
2023-03-17T02:10:36.131Z,101413.25
2023-03-17T02:13:08.806Z,101418.16
2023-03-17T02:15:53.278Z,101411.81
2023-03-17T02:18:25.830Z,101417.66
2023-03-17T02:21:36.804Z,101424.50
2023-03-17T02:24:13.054Z,101422.84
2023-03-17T02:26:46.254Z,101410.69
2023-03-17T02:29:17.123Z,101418.66
2023-03-17T02:32:05.346Z,101418.38
2023-03-17T02:34:53.549Z,101411.72
2023-03-17T02:37:23.897Z,101409.47
2023-03-17T02:39:55.887Z,101420.50
2023-03-17T02:42:26.029Z,101421.03
2023-03-17T02:44:56.467Z,101422.16
2023-03-17T02:47:44.929Z,101422.16
2023-03-17T02:50:25.199Z,101418.75
2023-03-17T02:52:55.358Z,101419.88
2023-03-17T02:55:25.767Z,101422.34
2023-03-17T02:58:14.300Z,101416.81
2023-03-17T03:01:02.484Z,101416.81
2023-03-17T03:03:52.290Z,101425.91
2023-03-17T03:09:07.802Z,101422.88
2023-03-17T03:11:38.378Z,101418.97
2023-03-17T03:14:10.355Z,101415.91
2023-03-17T03:16:41.072Z,101423.06
2023-03-17T03:19:11.525Z,101407.28
2023-03-17T03:21:42.192Z,101407.81
2023-03-17T03:24:13.303Z,101397.59
2023-03-17T03:27:01.472Z,101395.63
2023-03-17T03:29:31.880Z,101402.00
2023-03-17T03:32:02.086Z,101389.81
2023-03-17T03:34:32.892Z,101396.47
2023-03-17T03:37:03.363Z,101386.22
2023-03-17T03:39:33.934Z,101381.53
2023-03-17T03:42:04.029Z,101385.41
2023-03-17T03:44:34.077Z,101385.94
2023-03-17T03:47:04.884Z,101385.94
2023-03-17T03:49:34.962Z,101372.13
2023-03-17T03:52:04.905Z,101372.13
2023-03-17T03:54:53.321Z,101367.09
2023-03-17T03:57:23.555Z,101360.75
2023-03-17T03:59:55.076Z,101354.44
2023-03-17T04:05:11.764Z,101357.66
2023-03-17T04:08:00.114Z,101351.03
2023-03-17T04:10:48.679Z,101357.38
2023-03-17T04:13:18.764Z,101349.91
2023-03-17T04:15:48.690Z,101350.72
2023-03-17T04:18:37.876Z,101336.91
2023-03-17T04:21:09.294Z,101332.19
2023-03-17T04:23:57.826Z,101333.03
2023-03-17T04:26:27.822Z,101328.31
2023-03-17T04:28:57.907Z,101319.72
2023-03-17T04:31:28.065Z,101313.38
2023-03-17T04:33:58.408Z,101305.91
2023-03-17T04:36:29.262Z,101297.63
2023-03-17T04:39:18.518Z,101300.06
2023-03-17T04:42:08.084Z,101292.91
2023-03-17T04:44:38.832Z,101298.09
2023-03-17T04:47:09.896Z,101289.53
2023-03-17T04:49:40.070Z,101280.41
2023-03-17T04:52:10.110Z,101271.81
2023-03-17T04:54:40.398Z,101269.06
2023-03-17T04:57:11.160Z,101264.84
2023-03-17T04:59:59.854Z,101255.25
2023-03-17T05:02:48.069Z,101259.00
2023-03-17T05:05:18.194Z,101252.66
2023-03-17T05:07:48.091Z,101250.41
2023-03-17T05:10:18.323Z,101252.03
2023-03-17T05:12:48.253Z,101250.06
2023-03-17T05:18:05.018Z,101233.22
2023-03-17T05:20:53.526Z,101226.56
2023-03-17T05:23:24.493Z,101220.72
2023-03-17T05:26:12.539Z,101213.25
2023-03-17T05:29:01.311Z,101211.31
2023-03-17T05:31:50.600Z,101205.16
2023-03-17T05:34:20.789Z,101206.78
2023-03-17T05:36:50.990Z,101196.53
2023-03-17T05:39:21.151Z,101195.41
2023-03-17T05:41:52.623Z,101191.53
2023-03-17T05:44:23.060Z,101184.88
2023-03-17T05:47:11.263Z,101176.91
2023-03-17T05:49:41.091Z,101166.31
2023-03-17T05:52:11.563Z,101165.69
2023-03-17T05:54:41.810Z,101166.81
2023-03-17T05:57:12.014Z,101157.91
2023-03-17T05:59:41.974Z,101148.16
2023-03-17T06:02:13.439Z,101137.44
2023-03-17T06:05:01.992Z,101135.78
2023-03-17T06:07:44.647Z,101137.94
2023-03-17T06:10:20.581Z,101129.00
2023-03-17T06:13:10.641Z,101128.19
2023-03-17T06:16:00.190Z,101106.56
2023-03-17T06:24:02.136Z,101098.44
2023-03-17T06:26:32.201Z,101098.94
2023-03-17T06:29:02.339Z,101085.13
2023-03-17T06:31:32.609Z,101080.44
2023-03-17T06:34:02.730Z,101068.22
2023-03-17T06:36:34.267Z,101061.88
2023-03-17T06:39:04.559Z,101055.53
2023-03-17T06:41:34.603Z,101048.06
2023-03-17T06:44:05.184Z,101045.78
2023-03-17T06:46:38.346Z,101039.13
2023-03-17T06:49:10.193Z,101035.72
2023-03-17T06:51:40.327Z,101037.34
2023-03-17T06:54:11.810Z,101024.03
2023-03-17T06:56:41.949Z,101021.72
2023-03-17T06:59:12.639Z,101018.31
2023-03-17T07:01:42.923Z,101013.13
2023-03-17T07:04:13.390Z,101001.25
2023-03-17T07:06:43.470Z,100995.06
2023-03-17T07:09:13.413Z,100992.81
2023-03-17T07:12:01.553Z,100979.31
2023-03-17T07:14:31.773Z,100978.47
2023-03-17T07:17:02.186Z,100973.44
2023-03-17T07:19:33.361Z,100966.63
2023-03-17T07:22:04.016Z,100958.34
2023-03-17T07:24:52.476Z,100959.97
2023-03-17T07:27:23.455Z,100954.88
2023-03-17T07:29:54.015Z,100948.06
2023-03-17T07:32:24.100Z,100956.38
2023-03-17T07:34:53.987Z,100949.19
2023-03-17T07:37:24.148Z,100951.66
2023-03-17T07:39:54.182Z,100938.16
2023-03-17T07:42:24.114Z,100935.06
2023-03-17T07:44:54.074Z,100935.06
2023-03-17T07:47:24.243Z,100931.19
2023-03-17T07:49:54.616Z,100928.56
2023-03-17T07:52:24.650Z,100934.09
2023-03-17T07:54:55.281Z,100927.44
2023-03-17T08:00:12.639Z,100923.53
2023-03-17T08:03:09.969Z,100910.19
2023-03-17T08:05:42.064Z,100914.56
2023-03-17T08:08:12.846Z,100918.97
2023-03-17T08:10:42.981Z,100906.78
2023-03-17T08:13:12.905Z,100913.94
2023-03-17T08:15:43.276Z,100903.38
2023-03-17T08:18:31.723Z,100901.75
2023-03-17T08:24:06.750Z,100900.59
2023-03-17T08:26:36.553Z,100894.28
2023-03-17T08:29:07.220Z,100896.22
2023-03-17T08:31:39.151Z,100892.66
2023-03-17T08:34:09.919Z,100892.31
2023-03-17T08:36:40.416Z,100895.41
2023-03-17T08:39:12.568Z,100891.03
2023-03-17T08:41:42.877Z,100880.75
2023-03-17T08:44:13.428Z,100887.59
2023-03-17T08:46:44.182Z,100884.00
2023-03-17T08:49:33.327Z,100878.97
2023-03-17T08:52:03.897Z,100880.09
2023-03-17T08:54:34.040Z,100875.88
2023-03-17T08:57:04.034Z,100876.22
2023-03-17T08:59:34.238Z,100873.09
2023-03-17T09:02:04.198Z,100875.06
2023-03-17T09:04:35.052Z,100874.41
2023-03-17T09:07:05.783Z,100871.66
2023-03-17T09:09:38.990Z,100868.75
2023-03-17T09:12:10.262Z,100876.69
2023-03-17T09:14:43.851Z,100872.78
2023-03-17T09:17:17.089Z,100869.53
2023-03-17T09:19:47.194Z,100867.91
2023-03-17T09:22:19.950Z,100871.50
2023-03-17T09:24:50.177Z,100875.06
2023-03-17T09:27:20.017Z,100867.09
2023-03-17T09:29:51.101Z,100869.53
2023-03-17T09:32:21.795Z,100869.19
2023-03-17T09:34:51.865Z,100865.63
2023-03-17T09:37:22.491Z,100866.13
2023-03-17T09:39:52.705Z,100870.53
2023-03-17T09:42:30.612Z,100867.09
2023-03-17T09:45:26.385Z,100870.66
2023-03-17T09:48:06.730Z,100865.13
2023-03-17T09:51:01.219Z,100871.47
2023-03-17T09:53:44.751Z,100863.66
2023-03-17T09:56:17.812Z,100871.94
2023-03-17T09:59:00.643Z,100866.75
2023-03-17T10:01:30.724Z,100877.81
2023-03-17T10:04:00.882Z,100876.69
2023-03-17T10:06:46.467Z,100889.69
2023-03-17T13:35:22.561Z,101094.53
2023-03-17T13:38:15.712Z,101092.75
2023-03-17T13:41:31.520Z,101099.00
2023-03-17T13:44:19.836Z,101106.19
2023-03-17T13:46:50.466Z,101122.56
2023-03-17T13:49:26.660Z,101125.44
2023-03-17T13:52:10.505Z,101122.41
2023-03-17T13:55:05.487Z,101117.22
2023-03-17T13:57:42.224Z,101123.00
2023-03-17T14:00:26.418Z,101123.19
2023-03-17T14:03:20.454Z,101128.09
2023-03-17T14:05:53.263Z,101125.84
2023-03-17T14:08:34.281Z,101131.03
2023-03-17T14:11:11.062Z,101129.72
2023-03-17T14:13:49.720Z,101135.88
2023-03-17T14:16:28.419Z,101140.56
2023-03-17T14:19:03.198Z,101143.84
2023-03-17T14:21:35.345Z,101146.47
2023-03-17T14:24:20.187Z,101154.66
2023-03-17T14:26:52.428Z,101154.94
2023-03-17T14:29:27.967Z,101156.41
2023-03-17T14:32:19.960Z,101152.00
2023-03-17T14:35:01.521Z,101157.03
2023-03-17T14:37:31.666Z,101161.31
2023-03-17T14:40:01.800Z,101166.22
2023-03-17T14:42:33.712Z,101161.47
2023-03-17T14:48:12.886Z,101163.69
2023-03-17T14:51:07.375Z,101167.78
2023-03-17T14:53:41.413Z,101166.31
2023-03-17T14:56:17.557Z,101169.09
2023-03-17T14:58:51.201Z,101174.38
2023-03-17T15:01:28.477Z,101180.41
2023-03-17T15:04:22.551Z,101176.19
2023-03-17T15:06:56.984Z,101174.44
2023-03-17T15:09:41.685Z,101180.66
2023-03-17T15:12:27.202Z,101185.84
2023-03-17T15:15:03.474Z,101187.03
2023-03-17T15:17:40.445Z,101192.56
2023-03-17T15:20:18.796Z,101191.97
2023-03-17T15:22:58.435Z,101195.53
2023-03-17T15:25:34.493Z,101202.06
2023-03-17T15:28:10.144Z,101200.63
2023-03-17T15:30:47.664Z,101197.84
2023-03-17T15:33:40.061Z,101198.19
2023-03-17T15:36:31.382Z,101193.97
2023-03-17T15:39:02.896Z,101191.34
2023-03-17T15:41:33.015Z,101188.94
2023-03-17T15:44:05.163Z,101191.69
2023-03-17T15:46:35.938Z,101189.88
2023-03-17T15:49:13.212Z,101185.50
2023-03-17T15:51:43.424Z,101187.44
2023-03-17T15:54:17.385Z,101200.13
2023-03-17T15:56:47.934Z,101187.75
2023-03-17T15:59:18.064Z,101193.59
2023-03-17T16:01:49.015Z,101191.00
2023-03-17T16:04:20.149Z,101184.19
2023-03-17T16:06:50.178Z,101183.34
2023-03-17T16:09:20.081Z,101180.09
2023-03-17T16:11:50.105Z,101184.28
2023-03-17T16:14:19.981Z,101189.00
2023-03-17T16:16:50.405Z,101184.28
2023-03-17T16:19:23.375Z,101183.19
2023-03-17T16:21:54.178Z,101175.19
2023-03-17T16:24:27.079Z,101178.75
2023-03-17T16:26:57.101Z,101178.25
2023-03-17T16:29:26.932Z,101171.91
2023-03-17T16:31:57.951Z,101175.47
2023-03-17T16:34:28.399Z,101172.41
2023-03-17T16:36:58.926Z,101162.78
2023-03-17T16:39:29.457Z,101163.63
2023-03-17T16:42:01.706Z,101156.13
2023-03-17T16:44:31.729Z,101146.53
2023-03-17T16:47:01.633Z,101147.34
2023-03-17T16:49:31.669Z,101137.94
2023-03-17T16:52:01.799Z,101142.94
2023-03-17T16:54:35.374Z,101134.66
2023-03-17T16:57:07.673Z,101146.88
2023-03-17T16:59:38.201Z,101137.63
2023-03-17T17:02:18.579Z,101140.69
2023-03-17T17:04:48.565Z,101135.81
2023-03-17T17:07:18.462Z,101130.59
2023-03-17T17:09:48.539Z,101124.88
2023-03-17T17:12:18.516Z,101121.78
2023-03-17T17:14:48.419Z,101118.22
2023-03-17T17:17:18.276Z,101116.09
2023-03-17T17:19:48.307Z,101108.31
2023-03-17T17:22:18.231Z,101116.09
2023-03-17T17:24:48.119Z,101103.41
2023-03-17T17:27:18.040Z,101103.09
2023-03-17T17:29:48.308Z,101105.03
2023-03-17T17:32:21.081Z,101107.81
2023-03-17T17:34:51.119Z,101098.38
2023-03-17T17:37:21.059Z,101091.56
2023-03-17T17:39:51.276Z,101094.00
2023-03-17T17:42:21.818Z,101091.84
2023-03-17T17:44:52.184Z,101091.84
2023-03-17T17:47:22.633Z,101093.81
2023-03-17T17:49:52.709Z,101093.00
2023-03-17T17:52:23.067Z,101086.97
2023-03-17T17:54:53.301Z,101081.44
2023-03-17T17:57:23.368Z,101081.75
2023-03-17T17:59:53.239Z,101086.97
2023-03-17T18:02:23.354Z,101076.75
2023-03-17T18:04:54.043Z,101077.53
2023-03-17T18:07:25.106Z,101070.38
2023-03-17T18:09:55.892Z,101064.84
2023-03-17T18:12:25.891Z,101064.38
2023-03-17T18:14:56.243Z,101080.97
2023-03-17T18:17:26.773Z,101071.50
2023-03-17T18:19:57.416Z,101076.25
2023-03-17T18:22:27.434Z,101067.16
2023-03-17T18:24:57.320Z,101060.00
2023-03-17T18:27:27.387Z,101067.63
2023-03-17T18:29:58.188Z,101060.78
2023-03-17T18:32:30.244Z,101067.44
2023-03-17T18:35:05.459Z,101070.72
2023-03-17T18:37:35.969Z,101079.63
2023-03-17T18:40:15.112Z,101074.94
2023-03-17T18:42:47.530Z,101068.28
2023-03-17T18:45:18.602Z,101065.81
2023-03-17T18:47:48.499Z,101063.06
2023-03-17T18:50:19.756Z,101058.66
2023-03-17T18:52:51.140Z,101061.13
2023-03-17T18:55:45.460Z,101055.09
2023-03-17T18:58:15.445Z,101051.22
2023-03-17T19:00:45.455Z,101051.22
2023-03-17T19:03:15.398Z,101048.13
2023-03-17T19:05:45.300Z,101045.06
2023-03-17T19:08:18.583Z,101045.34
2023-03-17T19:10:56.013Z,101039.03
2023-03-17T19:13:43.676Z,101035.44
2023-03-17T19:19:01.369Z,101041.78
2023-03-17T19:24:17.129Z,101041.28
2023-03-17T19:26:47.460Z,101034.94
2023-03-17T19:29:17.648Z,101036.56
2023-03-17T19:31:48.738Z,101042.41
2023-03-17T19:34:19.344Z,101045.19
2023-03-17T19:36:49.524Z,101034.13
2023-03-17T19:39:20.367Z,101031.38
2023-03-17T19:41:54.429Z,101034.13
2023-03-17T19:44:47.787Z,101035.13
2023-03-17T19:47:18.303Z,101029.09
2023-03-17T19:49:54.135Z,101026.66
2023-03-17T19:52:28.733Z,101027.78
2023-03-17T19:54:59.202Z,101028.59
2023-03-17T19:57:40.620Z,101029.41
2023-03-17T20:00:11.955Z,101030.53
2023-03-17T20:02:44.754Z,101035.59
2023-03-17T20:05:16.256Z,101026.97
2023-03-17T20:07:46.573Z,101025.84
2023-03-17T20:10:16.745Z,101031.38
2023-03-17T20:12:47.896Z,101025.34
2023-03-17T20:15:18.788Z,101028.09
2023-03-17T20:17:49.189Z,101036.38
2023-03-17T20:20:20.135Z,101033.63
2023-03-17T20:22:50.144Z,101030.06
2023-03-17T20:25:20.361Z,101024.84
2023-03-17T20:27:50.242Z,101026.97
2023-03-17T20:30:20.253Z,101024.22
2023-03-17T20:32:50.498Z,101029.41
2023-03-17T20:35:22.219Z,101030.25
2023-03-17T20:37:53.544Z,101023.88
2023-03-17T20:40:24.260Z,101024.72
2023-03-17T20:42:54.750Z,101027.78
2023-03-17T20:45:25.376Z,101038.81
2023-03-17T20:47:56.653Z,101031.66
2023-03-17T20:50:26.990Z,101032.50
2023-03-17T20:52:57.634Z,101032.00
2023-03-17T20:55:27.910Z,101030.38
2023-03-17T20:58:00.946Z,101037.84
2023-03-17T21:00:34.216Z,101035.88
2023-03-17T21:03:04.911Z,101034.75
2023-03-17T21:05:35.160Z,101040.28
2023-03-17T21:08:07.634Z,101035.59
2023-03-17T21:10:38.203Z,101036.22
2023-03-17T21:13:08.725Z,101035.88
2023-03-17T21:15:38.708Z,101036.72
2023-03-17T21:18:08.877Z,101045.00
2023-03-17T21:20:39.794Z,101038.66
2023-03-17T21:23:10.135Z,101046.13
2023-03-17T21:25:40.216Z,101045.81
2023-03-17T21:28:10.362Z,101043.03
2023-03-17T21:30:41.371Z,101044.69
2023-03-17T21:33:11.481Z,101046.13
2023-03-17T21:35:42.472Z,101045.00
2023-03-17T21:38:14.060Z,101054.41
2023-03-17T21:40:46.842Z,101055.53
2023-03-17T21:43:17.486Z,101052.97
2023-03-17T21:45:48.158Z,101053.59
2023-03-17T21:48:18.427Z,101067.72
2023-03-17T21:50:51.299Z,101061.38
2023-03-17T21:53:21.498Z,101072.41
2023-03-17T21:55:51.582Z,101072.41
2023-03-17T21:58:23.461Z,101070.78
2023-03-17T22:00:53.856Z,101074.66
2023-03-17T22:03:24.605Z,101059.25
2023-03-17T22:05:54.956Z,101059.94
2023-03-17T22:08:25.685Z,101061.06
2023-03-17T22:10:55.935Z,101064.63
2023-03-17T22:13:27.903Z,101073.25
2023-03-17T22:16:01.667Z,101073.88
2023-03-17T22:18:32.053Z,101069.28
2023-03-17T22:21:02.382Z,101067.16
2023-03-17T22:23:32.601Z,101081.59
2023-03-17T22:26:03.184Z,101079.94
2023-03-17T22:28:33.186Z,101085.47
2023-03-17T22:31:03.018Z,101087.03
2023-03-17T22:33:33.103Z,101089.81
2023-03-17T22:36:03.110Z,101097.28
2023-03-17T22:38:36.560Z,101094.53
2023-03-17T22:41:13.550Z,101086.25
2023-03-17T22:43:44.520Z,101087.63
2023-03-17T22:46:16.033Z,101095.91
2023-03-17T22:48:46.442Z,101103.06
2023-03-17T22:51:21.418Z,101096.25
2023-03-17T22:53:52.182Z,101107.50
2023-03-17T22:56:22.501Z,101104.44
2023-03-17T22:58:54.007Z,101119.03
2023-03-17T23:01:27.717Z,101114.94
2023-03-17T23:03:58.091Z,101126.53
2023-03-17T23:06:28.469Z,101126.53
2023-03-17T23:08:58.503Z,101124.88
2023-03-17T23:11:30.047Z,101138.69
2023-03-17T23:14:00.661Z,101133.25
2023-03-17T23:16:30.840Z,101134.63
2023-03-17T23:19:01.161Z,101139.22
2023-03-17T23:21:36.786Z,101141.97
2023-03-17T23:24:09.137Z,101143.44
2023-03-17T23:26:39.923Z,101149.69
2023-03-17T23:29:11.416Z,101150.00
2023-03-17T23:31:42.147Z,101151.41
2023-03-17T23:34:12.261Z,101162.13
2023-03-17T23:36:42.764Z,101156.94
2023-03-17T23:39:12.895Z,101165.84
2023-03-17T23:41:43.943Z,101169.72
2023-03-17T23:44:13.982Z,101174.13
2023-03-17T23:46:44.611Z,101172.16
2023-03-17T23:49:15.224Z,101186.56
2023-03-17T23:54:31.849Z,101199.38
